sensor_id;sensor_type;location;lat;lon;timestamp;P1;durP1;ratioP1;P2;durP2;ratioP2
974;SDS011;6115;49.296;10.602;2024-03-08T00:01:49;72.27;;;12.17;;
974;SDS011;6115;49.296;10.602;2024-03-08T00:06:50;72.07;;;13.10;;
974;SDS011;6115;49.296;10.602;2024-03-08T00:11:50;74.73;;;14.20;;
974;SDS011;6115;49.296;10.602;2024-03-08T00:16:52;72.97;;;13.40;;
974;SDS011;6115;49.296;10.602;2024-03-08T00:21:54;72.23;;;12.77;;
974;SDS011;6115;49.296;10.602;2024-03-08T00:26:55;74.87;;;13.50;;
974;SDS011;6115;49.296;10.602;2024-03-08T00:31:56;73.53;;;13.13;;
974;SDS011;6115;49.296;10.602;2024-03-08T00:36:56;74.97;;;15.67;;
974;SDS011;6115;49.296;10.602;2024-03-08T00:41:57;72.90;;;12.80;;
974;SDS011;6115;49.296;10.602;2024-03-08T00:46:57;75.97;;;15.57;;
974;SDS011;6115;49.296;10.602;2024-03-08T00:51:59;72.17;;;13.37;;
974;SDS011;6115;49.296;10.602;2024-03-08T00:56:59;71.90;;;13.03;;
974;SDS011;6115;49.296;10.602;2024-03-08T01:02:02;75.90;;;15.03;;
974;SDS011;6115;49.296;10.602;2024-03-08T01:07:03;72.10;;;12.50;;
974;SDS011;6115;49.296;10.602;2024-03-08T01:12:04;73.00;;;12.30;;
974;SDS011;6115;49.296;10.602;2024-03-08T01:17:07;72.50;;;13.27;;
974;SDS011;6115;49.296;10.602;2024-03-08T01:22:09;72.27;;;12.83;;
974;SDS011;6115;49.296;10.602;2024-03-08T01:27:10;77.43;;;17.80;;
974;SDS011;6115;49.296;10.602;2024-03-08T01:32:11;73.77;;;14.70;;
974;SDS011;6115;49.296;10.602;2024-03-08T01:37:12;71.87;;;13.70;;
974;SDS011;6115;49.296;10.602;2024-03-08T01:42:14;71.80;;;13.97;;
974;SDS011;6115;49.296;10.602;2024-03-08T01:47:17;73.40;;;15.53;;
974;SDS011;6115;49.296;10.602;2024-03-08T01:52:18;72.77;;;14.47;;
974;SDS011;6115;49.296;10.602;2024-03-08T01:57:21;71.87;;;14.87;;
974;SDS011;6115;49.296;10.602;2024-03-08T02:02:21;74.27;;;14.87;;
974;SDS011;6115;49.296;10.602;2024-03-08T02:07:22;73.03;;;15.50;;
974;SDS011;6115;49.296;10.602;2024-03-08T02:12:23;71.63;;;14.30;;
974;SDS011;6115;49.296;10.602;2024-03-08T02:17:23;75.37;;;16.80;;
974;SDS011;6115;49.296;10.602;2024-03-08T02:22:24;76.07;;;17.03;;
974;SDS011;6115;49.296;10.602;2024-03-08T02:27:25;71.80;;;14.97;;
974;SDS011;6115;49.296;10.602;2024-03-08T02:32:26;78.40;;;18.20;;
974;SDS011;6115;49.296;10.602;2024-03-08T02:37:26;71.80;;;14.20;;
974;SDS011;6115;49.296;10.602;2024-03-08T02:42:28;113.27;;;17.13;;
974;SDS011;6115;49.296;10.602;2024-03-08T02:47:28;72.70;;;16.03;;
974;SDS011;6115;49.296;10.602;2024-03-08T02:52:31;72.20;;;15.03;;
974;SDS011;6115;49.296;10.602;2024-03-08T02:57:31;73.27;;;14.77;;
974;SDS011;6115;49.296;10.602;2024-03-08T03:02:33;73.50;;;15.73;;
974;SDS011;6115;49.296;10.602;2024-03-08T03:07:33;71.27;;;13.47;;
974;SDS011;6115;49.296;10.602;2024-03-08T03:12:34;75.00;;;14.40;;
974;SDS011;6115;49.296;10.602;2024-03-08T03:17:34;74.37;;;15.77;;
974;SDS011;6115;49.296;10.602;2024-03-08T03:22:36;75.67;;;15.27;;
974;SDS011;6115;49.296;10.602;2024-03-08T03:27:37;70.27;;;12.07;;
974;SDS011;6115;49.296;10.602;2024-03-08T03:32:38;70.60;;;12.90;;
974;SDS011;6115;49.296;10.602;2024-03-08T03:37:47;70.70;;;12.87;;
974;SDS011;6115;49.296;10.602;2024-03-08T03:43:03;70.93;;;13.30;;
974;SDS011;6115;49.296;10.602;2024-03-08T03:48:07;71.47;;;13.43;;
974;SDS011;6115;49.296;10.602;2024-03-08T03:53:11;71.10;;;13.00;;
974;SDS011;6115;49.296;10.602;2024-03-08T03:58:13;71.87;;;14.53;;
974;SDS011;6115;49.296;10.602;2024-03-08T04:03:14;73.07;;;13.83;;
974;SDS011;6115;49.296;10.602;2024-03-08T04:08:14;72.10;;;16.33;;
974;SDS011;6115;49.296;10.602;2024-03-08T04:13:16;72.70;;;15.57;;
974;SDS011;6115;49.296;10.602;2024-03-08T04:18:16;69.90;;;12.87;;
974;SDS011;6115;49.296;10.602;2024-03-08T04:23:18;74.97;;;15.80;;
974;SDS011;6115;49.296;10.602;2024-03-08T04:28:19;71.00;;;13.80;;
974;SDS011;6115;49.296;10.602;2024-03-08T04:33:19;72.27;;;14.57;;
974;SDS011;6115;49.296;10.602;2024-03-08T04:38:21;70.17;;;12.83;;
974;SDS011;6115;49.296;10.602;2024-03-08T04:43:22;70.70;;;14.30;;
974;SDS011;6115;49.296;10.602;2024-03-08T04:48:25;70.80;;;14.93;;
974;SDS011;6115;49.296;10.602;2024-03-08T04:53:29;69.63;;;13.70;;
974;SDS011;6115;49.296;10.602;2024-03-08T04:58:30;72.00;;;16.67;;
974;SDS011;6115;49.296;10.602;2024-03-08T05:03:30;74.00;;;16.70;;
974;SDS011;6115;49.296;10.602;2024-03-08T05:08:31;70.30;;;14.30;;
974;SDS011;6115;49.296;10.602;2024-03-08T05:13:31;74.63;;;15.57;;
974;SDS011;6115;49.296;10.602;2024-03-08T05:18:32;69.00;;;12.67;;
974;SDS011;6115;49.296;10.602;2024-03-08T05:23:33;69.03;;;12.90;;
974;SDS011;6115;49.296;10.602;2024-03-08T05:28:34;76.70;;;15.03;;
974;SDS011;6115;49.296;10.602;2024-03-08T05:33:34;70.10;;;12.77;;
974;SDS011;6115;49.296;10.602;2024-03-08T05:38:35;70.53;;;13.70;;
974;SDS011;6115;49.296;10.602;2024-03-08T05:43:35;70.07;;;13.93;;
974;SDS011;6115;49.296;10.602;2024-03-08T05:48:36;76.20;;;14.13;;
974;SDS011;6115;49.296;10.602;2024-03-08T05:53:37;83.00;;;17.70;;
974;SDS011;6115;49.296;10.602;2024-03-08T05:58:37;69.57;;;14.03;;
974;SDS011;6115;49.296;10.602;2024-03-08T06:03:38;74.47;;;15.30;;
974;SDS011;6115;49.296;10.602;2024-03-08T06:08:45;70.37;;;12.50;;
974;SDS011;6115;49.296;10.602;2024-03-08T06:13:47;70.20;;;12.20;;
974;SDS011;6115;49.296;10.602;2024-03-08T06:18:48;68.90;;;12.23;;
974;SDS011;6115;49.296;10.602;2024-03-08T06:23:49;67.67;;;10.80;;
974;SDS011;6115;49.296;10.602;2024-03-08T06:28:49;70.50;;;13.20;;
974;SDS011;6115;49.296;10.602;2024-03-08T06:33:50;69.70;;;12.50;;
974;SDS011;6115;49.296;10.602;2024-03-08T06:38:54;74.60;;;13.90;;
974;SDS011;6115;49.296;10.602;2024-03-08T06:43:56;70.00;;;12.50;;
974;SDS011;6115;49.296;10.602;2024-03-08T06:48:57;69.67;;;12.30;;
974;SDS011;6115;49.296;10.602;2024-03-08T06:53:58;71.57;;;14.00;;
974;SDS011;6115;49.296;10.602;2024-03-08T06:58:58;69.90;;;12.20;;
974;SDS011;6115;49.296;10.602;2024-03-08T07:03:59;73.90;;;13.53;;
974;SDS011;6115;49.296;10.602;2024-03-08T07:09:02;68.50;;;12.10;;
974;SDS011;6115;49.296;10.602;2024-03-08T07:14:02;70.53;;;11.00;;
974;SDS011;6115;49.296;10.602;2024-03-08T07:19:05;69.50;;;12.93;;
974;SDS011;6115;49.296;10.602;2024-03-08T07:24:06;69.87;;;12.73;;
974;SDS011;6115;49.296;10.602;2024-03-08T07:29:22;67.70;;;10.93;;
974;SDS011;6115;49.296;10.602;2024-03-08T07:34:23;74.47;;;13.00;;
974;SDS011;6115;49.296;10.602;2024-03-08T07:39:23;76.20;;;13.60;;
974;SDS011;6115;49.296;10.602;2024-03-08T07:44:24;75.50;;;13.23;;
974;SDS011;6115;49.296;10.602;2024-03-08T07:49:25;70.87;;;12.63;;
974;SDS011;6115;49.296;10.602;2024-03-08T07:54:25;69.13;;;11.50;;
974;SDS011;6115;49.296;10.602;2024-03-08T07:59:26;70.10;;;12.97;;
974;SDS011;6115;49.296;10.602;2024-03-08T08:04:26;72.40;;;13.50;;
974;SDS011;6115;49.296;10.602;2024-03-08T08:09:27;70.50;;;13.67;;
974;SDS011;6115;49.296;10.602;2024-03-08T08:14:34;69.47;;;12.90;;
974;SDS011;6115;49.296;10.602;2024-03-08T08:19:40;73.40;;;14.93;;
974;SDS011;6115;49.296;10.602;2024-03-08T08:24:41;68.73;;;13.20;;
974;SDS011;6115;49.296;10.602;2024-03-08T08:29:41;69.17;;;12.33;;
974;SDS011;6115;49.296;10.602;2024-03-08T08:34:43;77.20;;;15.10;;
974;SDS011;6115;49.296;10.602;2024-03-08T08:39:44;72.93;;;15.10;;
974;SDS011;6115;49.296;10.602;2024-03-08T08:44:44;72.90;;;14.80;;
974;SDS011;6115;49.296;10.602;2024-03-08T08:49:46;72.57;;;13.10;;
974;SDS011;6115;49.296;10.602;2024-03-08T08:54:47;71.60;;;15.80;;
974;SDS011;6115;49.296;10.602;2024-03-08T08:59:48;80.93;;;16.60;;
974;SDS011;6115;49.296;10.602;2024-03-08T09:04:50;69.93;;;13.80;;
974;SDS011;6115;49.296;10.602;2024-03-08T09:09:50;77.20;;;15.97;;
974;SDS011;6115;49.296;10.602;2024-03-08T09:14:51;72.07;;;14.87;;
974;SDS011;6115;49.296;10.602;2024-03-08T09:19:51;79.23;;;17.80;;
974;SDS011;6115;49.296;10.602;2024-03-08T09:24:52;76.27;;;17.87;;
974;SDS011;6115;49.296;10.602;2024-03-08T09:29:53;76.40;;;18.97;;
974;SDS011;6115;49.296;10.602;2024-03-08T09:34:53;76.27;;;18.60;;
974;SDS011;6115;49.296;10.602;2024-03-08T09:39:56;76.70;;;17.87;;
974;SDS011;6115;49.296;10.602;2024-03-08T09:44:57;83.60;;;16.47;;
974;SDS011;6115;49.296;10.602;2024-03-08T09:49:59;78.17;;;16.83;;
974;SDS011;6115;49.296;10.602;2024-03-08T09:55:01;73.73;;;14.40;;
974;SDS011;6115;49.296;10.602;2024-03-08T10:00:02;74.27;;;15.90;;
974;SDS011;6115;49.296;10.602;2024-03-08T10:05:08;76.30;;;16.40;;
974;SDS011;6115;49.296;10.602;2024-03-08T10:10:10;73.80;;;15.67;;
974;SDS011;6115;49.296;10.602;2024-03-08T10:15:12;73.80;;;16.23;;
974;SDS011;6115;49.296;10.602;2024-03-08T10:20:13;75.13;;;16.10;;
974;SDS011;6115;49.296;10.602;2024-03-08T10:25:15;74.17;;;16.40;;
974;SDS011;6115;49.296;10.602;2024-03-08T10:30:16;77.60;;;14.47;;
974;SDS011;6115;49.296;10.602;2024-03-08T10:35:20;74.93;;;16.83;;
974;SDS011;6115;49.296;10.602;2024-03-08T10:40:21;76.77;;;16.50;;
974;SDS011;6115;49.296;10.602;2024-03-08T10:50:30;76.80;;;15.83;;
974;SDS011;6115;49.296;10.602;2024-03-08T10:55:34;74.07;;;15.80;;
974;SDS011;6115;49.296;10.602;2024-03-08T11:00:39;73.63;;;14.73;;
974;SDS011;6115;49.296;10.602;2024-03-08T11:05:41;72.00;;;14.50;;
974;SDS011;6115;49.296;10.602;2024-03-08T11:10:51;73.50;;;14.67;;
974;SDS011;6115;49.296;10.602;2024-03-08T11:15:55;75.70;;;16.23;;
974;SDS011;6115;49.296;10.602;2024-03-08T11:20:56;74.73;;;14.27;;
974;SDS011;6115;49.296;10.602;2024-03-08T11:25:57;71.97;;;13.60;;
974;SDS011;6115;49.296;10.602;2024-03-08T11:41:20;71.10;;;13.73;;
974;SDS011;6115;49.296;10.602;2024-03-08T11:46:24;70.30;;;14.87;;
974;SDS011;6115;49.296;10.602;2024-03-08T11:51:24;71.77;;;14.50;;
974;SDS011;6115;49.296;10.602;2024-03-08T11:56:25;73.20;;;14.63;;
974;SDS011;6115;49.296;10.602;2024-03-08T12:01:27;73.07;;;13.40;;
974;SDS011;6115;49.296;10.602;2024-03-08T12:06:35;69.97;;;11.57;;
974;SDS011;6115;49.296;10.602;2024-03-08T12:11:40;71.90;;;12.73;;
974;SDS011;6115;49.296;10.602;2024-03-08T12:16:41;71.37;;;13.20;;
974;SDS011;6115;49.296;10.602;2024-03-08T12:21:42;69.17;;;10.77;;
974;SDS011;6115;49.296;10.602;2024-03-08T12:26:48;68.87;;;11.57;;
974;SDS011;6115;49.296;10.602;2024-03-08T12:31:52;68.83;;;11.13;;
974;SDS011;6115;49.296;10.602;2024-03-08T12:36:54;69.50;;;10.50;;
974;SDS011;6115;49.296;10.602;2024-03-08T12:41:55;69.20;;;10.53;;
974;SDS011;6115;49.296;10.602;2024-03-08T12:46:57;68.30;;;10.07;;
974;SDS011;6115;49.296;10.602;2024-03-08T12:51:58;69.10;;;9.97;;
974;SDS011;6115;49.296;10.602;2024-03-08T12:56:59;67.87;;;9.30;;
974;SDS011;6115;49.296;10.602;2024-03-08T13:02:00;71.00;;;9.43;;
974;SDS011;6115;49.296;10.602;2024-03-08T13:07:00;66.00;;;8.50;;
974;SDS011;6115;49.296;10.602;2024-03-08T13:12:01;68.63;;;9.37;;
974;SDS011;6115;49.296;10.602;2024-03-08T13:17:02;67.80;;;9.00;;
974;SDS011;6115;49.296;10.602;2024-03-08T13:22:04;72.53;;;11.17;;
974;SDS011;6115;49.296;10.602;2024-03-08T13:27:05;66.30;;;8.47;;
974;SDS011;6115;49.296;10.602;2024-03-08T13:32:16;69.30;;;9.00;;
974;SDS011;6115;49.296;10.602;2024-03-08T13:37:17;65.90;;;8.63;;
974;SDS011;6115;49.296;10.602;2024-03-08T13:42:19;66.60;;;9.07;;
974;SDS011;6115;49.296;10.602;2024-03-08T13:47:20;66.57;;;9.10;;
974;SDS011;6115;49.296;10.602;2024-03-08T13:52:20;68.20;;;8.67;;
974;SDS011;6115;49.296;10.602;2024-03-08T13:57:21;65.70;;;9.10;;
974;SDS011;6115;49.296;10.602;2024-03-08T14:02:25;68.67;;;8.83;;
974;SDS011;6115;49.296;10.602;2024-03-08T14:07:28;67.60;;;9.07;;
974;SDS011;6115;49.296;10.602;2024-03-08T14:12:33;66.10;;;8.23;;
974;SDS011;6115;49.296;10.602;2024-03-08T14:17:35;66.87;;;8.60;;
974;SDS011;6115;49.296;10.602;2024-03-08T14:22:36;67.10;;;9.13;;
974;SDS011;6115;49.296;10.602;2024-03-08T14:27:36;69.47;;;10.97;;
974;SDS011;6115;49.296;10.602;2024-03-08T14:32:37;65.03;;;7.93;;
974;SDS011;6115;49.296;10.602;2024-03-08T14:37:38;66.50;;;9.00;;
974;SDS011;6115;49.296;10.602;2024-03-08T14:42:41;67.03;;;7.97;;
974;SDS011;6115;49.296;10.602;2024-03-08T14:47:42;67.33;;;7.37;;
974;SDS011;6115;49.296;10.602;2024-03-08T14:52:44;66.90;;;8.27;;
974;SDS011;6115;49.296;10.602;2024-03-08T14:57:46;65.33;;;7.50;;
974;SDS011;6115;49.296;10.602;2024-03-08T15:02:46;66.47;;;7.30;;
974;SDS011;6115;49.296;10.602;2024-03-08T15:07:47;66.60;;;7.70;;
974;SDS011;6115;49.296;10.602;2024-03-08T15:12:49;67.63;;;8.30;;
974;SDS011;6115;49.296;10.602;2024-03-08T15:17:52;66.77;;;6.93;;
974;SDS011;6115;49.296;10.602;2024-03-08T15:22:57;66.93;;;8.57;;
974;SDS011;6115;49.296;10.602;2024-03-08T15:27:58;66.77;;;7.63;;
974;SDS011;6115;49.296;10.602;2024-03-08T15:32:59;67.50;;;8.97;;
974;SDS011;6115;49.296;10.602;2024-03-08T15:38:03;65.30;;;7.60;;
974;SDS011;6115;49.296;10.602;2024-03-08T15:43:04;64.93;;;6.80;;
974;SDS011;6115;49.296;10.602;2024-03-08T15:48:05;68.47;;;8.30;;
974;SDS011;6115;49.296;10.602;2024-03-08T15:53:06;67.23;;;8.40;;
974;SDS011;6115;49.296;10.602;2024-03-08T15:58:06;68.20;;;8.20;;
974;SDS011;6115;49.296;10.602;2024-03-08T16:03:07;64.60;;;7.30;;
974;SDS011;6115;49.296;10.602;2024-03-08T16:08:12;69.17;;;8.47;;
974;SDS011;6115;49.296;10.602;2024-03-08T16:13:17;66.50;;;8.33;;
974;SDS011;6115;49.296;10.602;2024-03-08T16:18:20;67.70;;;8.10;;
974;SDS011;6115;49.296;10.602;2024-03-08T16:23:21;67.90;;;9.17;;
974;SDS011;6115;49.296;10.602;2024-03-08T16:28:23;66.83;;;8.97;;
974;SDS011;6115;49.296;10.602;2024-03-08T16:33:28;68.30;;;10.20;;
974;SDS011;6115;49.296;10.602;2024-03-08T16:38:28;67.50;;;9.40;;
974;SDS011;6115;49.296;10.602;2024-03-08T16:43:29;72.50;;;9.87;;
974;SDS011;6115;49.296;10.602;2024-03-08T16:48:29;70.17;;;10.13;;
974;SDS011;6115;49.296;10.602;2024-03-08T16:53:30;67.20;;;9.60;;
974;SDS011;6115;49.296;10.602;2024-03-08T16:58:32;69.10;;;10.13;;
974;SDS011;6115;49.296;10.602;2024-03-08T17:03:33;71.97;;;12.13;;
974;SDS011;6115;49.296;10.602;2024-03-08T17:08:34;70.07;;;12.57;;
974;SDS011;6115;49.296;10.602;2024-03-08T17:13:35;70.80;;;12.87;;
974;SDS011;6115;49.296;10.602;2024-03-08T17:18:36;73.23;;;12.30;;
974;SDS011;6115;49.296;10.602;2024-03-08T17:23:36;86.07;;;14.67;;
974;SDS011;6115;49.296;10.602;2024-03-08T17:28:37;69.07;;;12.10;;
974;SDS011;6115;49.296;10.602;2024-03-08T17:33:42;72.60;;;11.90;;
974;SDS011;6115;49.296;10.602;2024-03-08T17:38:42;69.20;;;11.47;;
974;SDS011;6115;49.296;10.602;2024-03-08T17:43:50;70.57;;;12.67;;
974;SDS011;6115;49.296;10.602;2024-03-08T17:48:51;70.23;;;11.73;;
974;SDS011;6115;49.296;10.602;2024-03-08T17:53:53;80.50;;;12.83;;
974;SDS011;6115;49.296;10.602;2024-03-08T17:58:54;70.50;;;13.23;;
974;SDS011;6115;49.296;10.602;2024-03-08T18:03:55;71.57;;;13.93;;
974;SDS011;6115;49.296;10.602;2024-03-08T18:08:56;71.83;;;13.97;;
974;SDS011;6115;49.296;10.602;2024-03-08T18:13:56;73.67;;;15.10;;
974;SDS011;6115;49.296;10.602;2024-03-08T18:18:57;72.20;;;14.40;;
974;SDS011;6115;49.296;10.602;2024-03-08T18:23:59;72.70;;;15.70;;
974;SDS011;6115;49.296;10.602;2024-03-08T18:29:04;78.47;;;19.73;;
974;SDS011;6115;49.296;10.602;2024-03-08T18:34:09;72.07;;;15.00;;
974;SDS011;6115;49.296;10.602;2024-03-08T18:39:09;74.20;;;16.67;;
974;SDS011;6115;49.296;10.602;2024-03-08T18:44:12;75.87;;;14.20;;
974;SDS011;6115;49.296;10.602;2024-03-08T18:49:13;81.20;;;17.10;;
974;SDS011;6115;49.296;10.602;2024-03-08T18:54:14;75.37;;;14.80;;
974;SDS011;6115;49.296;10.602;2024-03-08T18:59:15;73.17;;;11.93;;
974;SDS011;6115;49.296;10.602;2024-03-08T19:04:16;71.40;;;11.27;;
974;SDS011;6115;49.296;10.602;2024-03-08T19:09:16;74.67;;;11.87;;
974;SDS011;6115;49.296;10.602;2024-03-08T19:14:17;72.90;;;11.30;;
974;SDS011;6115;49.296;10.602;2024-03-08T19:19:18;72.17;;;12.23;;
974;SDS011;6115;49.296;10.602;2024-03-08T19:24:21;83.50;;;14.00;;
974;SDS011;6115;49.296;10.602;2024-03-08T19:29:21;77.13;;;11.70;;
974;SDS011;6115;49.296;10.602;2024-03-08T19:34:25;74.00;;;12.57;;
974;SDS011;6115;49.296;10.602;2024-03-08T19:39:26;82.20;;;15.10;;
974;SDS011;6115;49.296;10.602;2024-03-08T19:44:27;72.57;;;13.20;;
974;SDS011;6115;49.296;10.602;2024-03-08T19:49:28;78.50;;;15.80;;
974;SDS011;6115;49.296;10.602;2024-03-08T19:54:28;76.60;;;15.93;;
974;SDS011;6115;49.296;10.602;2024-03-08T19:59:29;75.60;;;16.50;;
974;SDS011;6115;49.296;10.602;2024-03-08T20:04:30;75.83;;;17.60;;
974;SDS011;6115;49.296;10.602;2024-03-08T20:09:31;70.90;;;13.87;;
974;SDS011;6115;49.296;10.602;2024-03-08T20:14:32;71.13;;;12.37;;
974;SDS011;6115;49.296;10.602;2024-03-08T20:19:35;69.80;;;11.07;;
974;SDS011;6115;49.296;10.602;2024-03-08T20:24:36;73.17;;;12.60;;
974;SDS011;6115;49.296;10.602;2024-03-08T20:29:38;77.80;;;12.37;;
974;SDS011;6115;49.296;10.602;2024-03-08T20:34:40;73.77;;;14.33;;
974;SDS011;6115;49.296;10.602;2024-03-08T20:39:45;72.40;;;14.00;;
974;SDS011;6115;49.296;10.602;2024-03-08T20:44:46;72.70;;;13.27;;
974;SDS011;6115;49.296;10.602;2024-03-08T20:49:47;76.67;;;17.70;;
974;SDS011;6115;49.296;10.602;2024-03-08T20:54:50;72.57;;;14.20;;
974;SDS011;6115;49.296;10.602;2024-03-08T20:59:50;76.27;;;15.57;;
974;SDS011;6115;49.296;10.602;2024-03-08T21:04:51;73.10;;;14.43;;
974;SDS011;6115;49.296;10.602;2024-03-08T21:09:52;79.47;;;15.40;;
974;SDS011;6115;49.296;10.602;2024-03-08T21:14:53;74.57;;;14.60;;
974;SDS011;6115;49.296;10.602;2024-03-08T21:19:54;72.87;;;14.77;;
974;SDS011;6115;49.296;10.602;2024-03-08T21:24:56;73.67;;;15.40;;
974;SDS011;6115;49.296;10.602;2024-03-08T21:29:57;77.87;;;15.93;;
974;SDS011;6115;49.296;10.602;2024-03-08T21:34:57;82.13;;;15.87;;
974;SDS011;6115;49.296;10.602;2024-03-08T21:39:58;93.40;;;17.27;;
974;SDS011;6115;49.296;10.602;2024-03-08T21:45:02;75.47;;;16.80;;
974;SDS011;6115;49.296;10.602;2024-03-08T21:50:04;77.00;;;15.90;;
974;SDS011;6115;49.296;10.602;2024-03-08T21:55:05;79.87;;;17.10;;
974;SDS011;6115;49.296;10.602;2024-03-08T22:00:06;75.93;;;17.43;;
974;SDS011;6115;49.296;10.602;2024-03-08T22:05:11;74.70;;;16.97;;
974;SDS011;6115;49.296;10.602;2024-03-08T22:10:16;81.87;;;16.70;;
974;SDS011;6115;49.296;10.602;2024-03-08T22:15:22;76.40;;;17.50;;
974;SDS011;6115;49.296;10.602;2024-03-08T22:20:23;75.73;;;17.33;;
974;SDS011;6115;49.296;10.602;2024-03-08T22:25:26;73.07;;;16.20;;
974;SDS011;6115;49.296;10.602;2024-03-08T22:30:27;77.67;;;18.90;;
974;SDS011;6115;49.296;10.602;2024-03-08T22:35:28;75.77;;;17.30;;
974;SDS011;6115;49.296;10.602;2024-03-08T22:40:28;77.00;;;18.37;;
974;SDS011;6115;49.296;10.602;2024-03-08T22:45:31;75.53;;;17.73;;
974;SDS011;6115;49.296;10.602;2024-03-08T22:50:32;73.17;;;17.07;;
974;SDS011;6115;49.296;10.602;2024-03-08T22:55:33;76.63;;;18.40;;
974;SDS011;6115;49.296;10.602;2024-03-08T23:00:33;75.07;;;19.60;;
974;SDS011;6115;49.296;10.602;2024-03-08T23:05:37;76.00;;;18.70;;
974;SDS011;6115;49.296;10.602;2024-03-08T23:10:37;75.17;;;18.50;;
974;SDS011;6115;49.296;10.602;2024-03-08T23:15:39;77.80;;;18.40;;
974;SDS011;6115;49.296;10.602;2024-03-08T23:20:41;74.50;;;18.73;;
974;SDS011;6115;49.296;10.602;2024-03-08T23:25:42;77.13;;;19.80;;
974;SDS011;6115;49.296;10.602;2024-03-08T23:30:44;75.20;;;18.03;;
974;SDS011;6115;49.296;10.602;2024-03-08T23:35:45;74.67;;;18.80;;
974;SDS011;6115;49.296;10.602;2024-03-08T23:40:46;73.33;;;18.37;;
974;SDS011;6115;49.296;10.602;2024-03-08T23:45:47;74.50;;;18.00;;
974;SDS011;6115;49.296;10.602;2024-03-08T23:50:48;72.93;;;17.47;;
974;SDS011;6115;49.296;10.602;2024-03-08T23:55:49;75.37;;;17.90;;
